Freeman, Iowa
Current Conditions -  °F | °C
As of 11:53 AM on Saturday 25 Oct 2014 (Local Time) from KMCW Reporting Station
Clear Clear  
Wind Chill: 62°   Ceiling: Unl
Heat Index: 62°   Visibility: 10mi
Dew Point: 36°   Wind: 18mph
Humidity: 38%   Direction: 330°NNW
Pressure: 30.11"   Gusts: NA
Location:  43.1451°N, 93.1385°W
Report Text: KMCW 251653Z AUTO 33016KT 10SM CLR 17/02 A3011 RMK AO2 SLP193 T01670022
Loading
Personal Weather Stations






























Interactive Weather Map
Tropical Storm Tracking
New forecast layout! Learn more

10-Day Weather Forecast

Advertisements
Track Severe Weather on mobile